BAW865 LHBP-EGLL
Flight info
| Callsign | BAW865 |
|---|---|
| Flight time | N/A |
| Altitude | 24000 |
| Route | GILEP2L GILEP DCT ZOLKU DCT TEKNO DCT ABETI/N0453F380 DCT RENKA DCT INBED DCT BOMBI DCT ADKUV DCT LENDO DCT SOGRI DCT DENUT L608 LOGAN LOGAN2H |
| Aircraft | A319/M-SDE2E3FGHIJ1RWXY/SB1 |
Departure
| Time | N/A |
|---|---|
| Airport | Budapest Liszt Ferenc International Airport (LHBP) |
Arrival
| Time | 2026-05-07 14:51 |
|---|---|
| Airport | London Heathrow Airport (EGLL) |
| Time | Latitude | Longitude | Altitude | Speed | Heading |
|---|---|---|---|---|---|
| 2026-05-07 13:27 | 48.99100 | 12.24140 | 38022 ft | 442 kts | 292° |
| 2026-05-07 13:27 | 49.00421 | 12.19908 | 38024 ft | 442 kts | 292° |
| 2026-05-07 13:28 | 49.03064 | 12.11443 | 38037 ft | 443 kts | 293° |
| 2026-05-07 13:28 | 49.05705 | 12.02966 | 38041 ft | 443 kts | 292° |
| 2026-05-07 13:29 | 49.08341 | 11.94468 | 38059 ft | 443 kts | 293° |
| 2026-05-07 13:29 | 49.10974 | 11.85953 | 38051 ft | 443 kts | 292° |
| 2026-05-07 13:30 | 49.13594 | 11.77434 | 38052 ft | 443 kts | 292° |
| 2026-05-07 13:30 | 49.16208 | 11.68904 | 38049 ft | 443 kts | 292° |
| 2026-05-07 13:31 | 49.18816 | 11.60381 | 38048 ft | 442 kts | 292° |
| 2026-05-07 13:31 | 49.21417 | 11.51856 | 38046 ft | 442 kts | 292° |
| 2026-05-07 13:32 | 49.24009 | 11.43321 | 38043 ft | 442 kts | 292° |
| 2026-05-07 13:32 | 49.26591 | 11.34780 | 38047 ft | 442 kts | 292° |
| 2026-05-07 13:33 | 49.29169 | 11.26232 | 38055 ft | 442 kts | 292° |
| 2026-05-07 13:33 | 49.31744 | 11.17672 | 38063 ft | 442 kts | 292° |
| 2026-05-07 13:34 | 49.35592 | 11.04816 | 38071 ft | 442 kts | 292° |
| 2026-05-07 13:35 | 49.38140 | 10.96238 | 38073 ft | 441 kts | 292° |
| 2026-05-07 13:35 | 49.40753 | 10.87720 | 38067 ft | 442 kts | 294° |
| 2026-05-07 13:36 | 49.43533 | 10.79297 | 38059 ft | 442 kts | 295° |
| 2026-05-07 13:36 | 49.46323 | 10.70883 | 38055 ft | 442 kts | 295° |
| 2026-05-07 13:37 | 49.49063 | 10.62440 | 38052 ft | 441 kts | 294° |
| 2026-05-07 13:37 | 49.51773 | 10.53955 | 38054 ft | 442 kts | 294° |
| 2026-05-07 13:38 | 49.54484 | 10.45465 | 38058 ft | 442 kts | 294° |
| 2026-05-07 13:38 | 49.57217 | 10.36926 | 38052 ft | 442 kts | 294° |
| 2026-05-07 13:39 | 49.59928 | 10.28420 | 38054 ft | 442 kts | 294° |
| 2026-05-07 13:39 | 49.62610 | 10.19961 | 38057 ft | 442 kts | 294° |
| 2026-05-07 13:40 | 49.65318 | 10.11392 | 38050 ft | 441 kts | 294° |
| 2026-05-07 13:40 | 49.68000 | 10.02869 | 38048 ft | 441 kts | 294° |
| 2026-05-07 13:41 | 49.70679 | 9.94340 | 38042 ft | 441 kts | 294° |
| 2026-05-07 13:41 | 49.73349 | 9.85797 | 38041 ft | 441 kts | 294° |
| 2026-05-07 13:42 | 49.76008 | 9.77251 | 38045 ft | 441 kts | 294° |
| 2026-05-07 13:42 | 49.78668 | 9.68702 | 38034 ft | 441 kts | 294° |
| 2026-05-07 13:43 | 49.81323 | 9.60145 | 38040 ft | 441 kts | 294° |
| 2026-05-07 13:43 | 49.83966 | 9.51570 | 38039 ft | 441 kts | 294° |
| 2026-05-07 13:44 | 49.86605 | 9.42983 | 38042 ft | 441 kts | 294° |
| 2026-05-07 13:44 | 49.88799 | 9.35842 | 38041 ft | 441 kts | 294° |
| 2026-05-07 13:45 | 49.91419 | 9.27239 | 38047 ft | 441 kts | 294° |
| 2026-05-07 13:45 | 49.94040 | 9.18619 | 38051 ft | 442 kts | 294° |
| 2026-05-07 13:46 | 49.96661 | 9.10000 | 38058 ft | 441 kts | 294° |
| 2026-05-07 13:46 | 49.99273 | 9.01366 | 38061 ft | 441 kts | 294° |
| 2026-05-07 13:47 | 50.01874 | 8.92724 | 38060 ft | 441 kts | 294° |
| 2026-05-07 13:47 | 50.04463 | 8.84082 | 38062 ft | 441 kts | 293° |
| 2026-05-07 13:48 | 50.06931 | 8.75324 | 38065 ft | 441 kts | 290° |
| 2026-05-07 13:48 | 50.09044 | 8.66362 | 38066 ft | 441 kts | 288° |
| 2026-05-07 13:49 | 50.11062 | 8.57345 | 38064 ft | 441 kts | 288° |
| 2026-05-07 13:49 | 50.13132 | 8.48355 | 38064 ft | 441 kts | 289° |
| 2026-05-07 13:50 | 50.15249 | 8.39362 | 38063 ft | 441 kts | 289° |
| 2026-05-07 13:50 | 50.17358 | 8.30365 | 38064 ft | 442 kts | 289° |
| 2026-05-07 13:51 | 50.19442 | 8.21354 | 38064 ft | 442 kts | 289° |
| 2026-05-07 13:51 | 50.21523 | 8.12336 | 38068 ft | 442 kts | 289° |
| 2026-05-07 13:52 | 50.23598 | 8.03295 | 38063 ft | 442 kts | 288° |
| 2026-05-07 13:52 | 50.25669 | 7.94251 | 38063 ft | 442 kts | 288° |
| 2026-05-07 13:53 | 50.27740 | 7.85191 | 38061 ft | 443 kts | 288° |
| 2026-05-07 13:53 | 50.29802 | 7.76127 | 38062 ft | 443 kts | 288° |
| 2026-05-07 13:54 | 50.31862 | 7.67040 | 38059 ft | 443 kts | 288° |
| 2026-05-07 13:54 | 50.33908 | 7.57957 | 38063 ft | 443 kts | 288° |
| 2026-05-07 13:55 | 50.35941 | 7.48857 | 38059 ft | 443 kts | 288° |
| 2026-05-07 13:55 | 50.37971 | 7.39749 | 38065 ft | 442 kts | 288° |
| 2026-05-07 13:56 | 50.39997 | 7.30636 | 38067 ft | 442 kts | 288° |
| 2026-05-07 13:56 | 50.42010 | 7.21523 | 38066 ft | 442 kts | 288° |
| 2026-05-07 13:57 | 50.44017 | 7.12412 | 38065 ft | 442 kts | 288° |
| 2026-05-07 13:57 | 50.46019 | 7.03292 | 38062 ft | 442 kts | 288° |
| 2026-05-07 13:58 | 50.48004 | 6.94165 | 38060 ft | 442 kts | 288° |
| 2026-05-07 13:58 | 50.49988 | 6.85025 | 38054 ft | 442 kts | 288° |
| 2026-05-07 13:59 | 50.51984 | 6.75893 | 38053 ft | 442 kts | 288° |
| 2026-05-07 13:59 | 50.54013 | 6.66784 | 38057 ft | 442 kts | 288° |
| 2026-05-07 14:00 | 50.56039 | 6.57654 | 38053 ft | 442 kts | 288° |
| 2026-05-07 14:00 | 50.58042 | 6.48522 | 38055 ft | 442 kts | 288° |
| 2026-05-07 14:01 | 50.60031 | 6.39380 | 38055 ft | 442 kts | 288° |
| 2026-05-07 14:01 | 50.62017 | 6.30229 | 38052 ft | 442 kts | 288° |
| 2026-05-07 14:02 | 50.63599 | 6.20904 | 38051 ft | 441 kts | 282° |
| 2026-05-07 14:02 | 50.65015 | 6.11501 | 38057 ft | 441 kts | 282° |
| 2026-05-07 14:03 | 50.66429 | 6.02105 | 38055 ft | 441 kts | 282° |
| 2026-05-07 14:03 | 50.67851 | 5.92705 | 38057 ft | 441 kts | 282° |
| 2026-05-07 14:04 | 50.69261 | 5.83294 | 38065 ft | 441 kts | 282° |
| 2026-05-07 14:04 | 50.70651 | 5.73876 | 38089 ft | 441 kts | 282° |
| 2026-05-07 14:05 | 50.72028 | 5.64445 | 38093 ft | 441 kts | 282° |
| 2026-05-07 14:05 | 50.73406 | 5.55026 | 38099 ft | 441 kts | 282° |
| 2026-05-07 14:06 | 50.74779 | 5.45609 | 38099 ft | 440 kts | 282° |
| 2026-05-07 14:06 | 50.76140 | 5.36182 | 38093 ft | 440 kts | 282° |
| 2026-05-07 14:07 | 50.77492 | 5.26748 | 38092 ft | 440 kts | 281° |
| 2026-05-07 14:07 | 50.78831 | 5.17329 | 38087 ft | 440 kts | 281° |
| 2026-05-07 14:08 | 50.79879 | 5.09939 | 38085 ft | 440 kts | 281° |
| 2026-05-07 14:08 | 50.81314 | 5.02444 | 38083 ft | 441 kts | 293° |
| 2026-05-07 14:09 | 50.84074 | 4.93767 | 38082 ft | 442 kts | 295° |
| 2026-05-07 14:09 | 50.86832 | 4.85087 | 38087 ft | 441 kts | 295° |
| 2026-05-07 14:10 | 50.89566 | 4.76383 | 38086 ft | 441 kts | 295° |
| 2026-05-07 14:10 | 50.92296 | 4.67673 | 38087 ft | 441 kts | 295° |
| 2026-05-07 14:11 | 50.95033 | 4.58956 | 38088 ft | 441 kts | 295° |
| 2026-05-07 14:11 | 50.97759 | 4.50226 | 38089 ft | 441 kts | 295° |
| 2026-05-07 14:12 | 51.00476 | 4.41491 | 38086 ft | 441 kts | 295° |
| 2026-05-07 14:12 | 51.03189 | 4.32743 | 38084 ft | 441 kts | 294° |
| 2026-05-07 14:13 | 51.05897 | 4.23987 | 38083 ft | 441 kts | 294° |
| 2026-05-07 14:13 | 51.08592 | 4.15221 | 38081 ft | 441 kts | 294° |
| 2026-05-07 14:14 | 51.11283 | 4.06436 | 38078 ft | 441 kts | 294° |
| 2026-05-07 14:14 | 51.13965 | 3.97652 | 38071 ft | 441 kts | 294° |
| 2026-05-07 14:15 | 51.16643 | 3.88848 | 38070 ft | 441 kts | 294° |
| 2026-05-07 14:15 | 51.19314 | 3.80047 | 38065 ft | 441 kts | 294° |
| 2026-05-07 14:16 | 51.21976 | 3.71222 | 38073 ft | 441 kts | 294° |
| 2026-05-07 14:16 | 51.24817 | 3.62525 | 38064 ft | 442 kts | 299° |
| 2026-05-07 14:17 | 51.27957 | 3.54075 | 38074 ft | 442 kts | 299° |
| 2026-05-07 14:17 | 51.31093 | 3.45624 | 38072 ft | 442 kts | 299° |
| 2026-05-07 14:18 | 51.34217 | 3.37145 | 38081 ft | 442 kts | 297° |
| 2026-05-07 14:18 | 51.36573 | 3.28116 | 38073 ft | 440 kts | 289° |
| 2026-05-07 14:19 | 51.38741 | 3.18945 | 38079 ft | 440 kts | 289° |
| 2026-05-07 14:19 | 51.40912 | 3.09789 | 38084 ft | 440 kts | 289° |
| 2026-05-07 14:20 | 51.43081 | 3.00607 | 38068 ft | 440 kts | 289° |
| 2026-05-07 14:20 | 51.45233 | 2.91414 | 38078 ft | 440 kts | 289° |
| 2026-05-07 14:21 | 51.47383 | 2.82204 | 38078 ft | 441 kts | 289° |
| 2026-05-07 14:21 | 51.49159 | 2.74548 | 38071 ft | 441 kts | 289° |
| 2026-05-07 14:22 | 51.51650 | 2.63764 | 38078 ft | 441 kts | 289° |
| 2026-05-07 14:22 | 51.53419 | 2.56092 | 38085 ft | 441 kts | 289° |
| 2026-05-07 14:23 | 51.55535 | 2.46833 | 38081 ft | 441 kts | 289° |
| 2026-05-07 14:23 | 51.57651 | 2.37569 | 38074 ft | 442 kts | 288° |
| 2026-05-07 14:23 | 51.58711 | 2.32922 | 37760 ft | 442 kts | 289° |
| 2026-05-07 14:24 | 51.59767 | 2.28289 | 37361 ft | 441 kts | 289° |
| 2026-05-07 14:24 | 51.60825 | 2.23647 | 36918 ft | 441 kts | 289° |
| 2026-05-07 14:24 | 51.61881 | 2.18999 | 36292 ft | 442 kts | 289° |
| 2026-05-07 14:24 | 51.62932 | 2.14358 | 35678 ft | 442 kts | 289° |
| 2026-05-07 14:25 | 51.63985 | 2.09688 | 34838 ft | 446 kts | 289° |
| 2026-05-07 14:25 | 51.65045 | 2.04966 | 33996 ft | 450 kts | 289° |
| 2026-05-07 14:25 | 51.66112 | 2.00204 | 33016 ft | 453 kts | 289° |
| 2026-05-07 14:25 | 51.67184 | 1.95411 | 32087 ft | 455 kts | 289° |
| 2026-05-07 14:26 | 51.68257 | 1.90606 | 31177 ft | 456 kts | 289° |
| 2026-05-07 14:26 | 51.69330 | 1.85791 | 30302 ft | 457 kts | 289° |
| 2026-05-07 14:26 | 51.70398 | 1.80972 | 29313 ft | 456 kts | 289° |
| 2026-05-07 14:26 | 51.71463 | 1.76157 | 28331 ft | 455 kts | 288° |
| 2026-05-07 14:27 | 51.72535 | 1.71299 | 27368 ft | 453 kts | 288° |
| 2026-05-07 14:27 | 51.73589 | 1.66526 | 26454 ft | 450 kts | 288° |
| 2026-05-07 14:27 | 51.74344 | 1.61655 | 25562 ft | 446 kts | 277° |
| 2026-05-07 14:27 | 51.74476 | 1.56760 | 24713 ft | 441 kts | 266° |
| 2026-05-07 14:28 | 51.74170 | 1.51757 | 23849 ft | 442 kts | 263° |
| 2026-05-07 14:28 | 51.73850 | 1.46899 | 22849 ft | 439 kts | 263° |
| 2026-05-07 14:28 | 51.73530 | 1.42013 | 22251 ft | 438 kts | 263° |
| 2026-05-07 14:28 | 51.73210 | 1.37075 | 21991 ft | 447 kts | 263° |
| 2026-05-07 14:29 | 51.72887 | 1.32074 | 21725 ft | 448 kts | 263° |
| 2026-05-07 14:29 | 51.72564 | 1.27086 | 21459 ft | 447 kts | 263° |
| 2026-05-07 14:29 | 51.72240 | 1.22104 | 21194 ft | 446 kts | 263° |
| 2026-05-07 14:29 | 51.71911 | 1.17147 | 20935 ft | 444 kts | 263° |
| 2026-05-07 14:30 | 51.71577 | 1.12204 | 20679 ft | 443 kts | 263° |
| 2026-05-07 14:30 | 51.71240 | 1.07274 | 20367 ft | 441 kts | 263° |
| 2026-05-07 14:30 | 51.70900 | 1.02374 | 20038 ft | 439 kts | 263° |
| 2026-05-07 14:30 | 51.70561 | 0.97499 | 19716 ft | 437 kts | 263° |
| 2026-05-07 14:31 | 51.70226 | 0.92641 | 19395 ft | 435 kts | 263° |
| 2026-05-07 14:31 | 51.69894 | 0.87809 | 19068 ft | 433 kts | 263° |
| 2026-05-07 14:31 | 51.69562 | 0.82998 | 18574 ft | 430 kts | 263° |
| 2026-05-07 14:31 | 51.69229 | 0.78218 | 18029 ft | 428 kts | 263° |
| 2026-05-07 14:32 | 51.68969 | 0.74537 | 17587 ft | 425 kts | 262° |
| 2026-05-07 14:32 | 51.68630 | 0.69820 | 17024 ft | 422 kts | 262° |
| 2026-05-07 14:32 | 51.68290 | 0.65118 | 16476 ft | 420 kts | 262° |
| 2026-05-07 14:32 | 51.67951 | 0.60452 | 15927 ft | 417 kts | 262° |
| 2026-05-07 14:33 | 51.67613 | 0.55823 | 15401 ft | 415 kts | 262° |
| 2026-05-07 14:33 | 51.67278 | 0.51215 | 14874 ft | 408 kts | 262° |
| 2026-05-07 14:33 | 51.66955 | 0.46743 | 14361 ft | 398 kts | 262° |
| 2026-05-07 14:33 | 51.66641 | 0.42388 | 13971 ft | 385 kts | 262° |
| 2026-05-07 14:34 | 51.66337 | 0.38180 | 13582 ft | 371 kts | 262° |
| 2026-05-07 14:34 | 51.66043 | 0.34128 | 13180 ft | 359 kts | 262° |
| 2026-05-07 14:34 | 51.65752 | 0.30191 | 12784 ft | 348 kts | 262° |
| 2026-05-07 14:34 | 51.65465 | 0.26366 | 12393 ft | 339 kts | 262° |
| 2026-05-07 14:35 | 51.65179 | 0.22640 | 12005 ft | 332 kts | 262° |
| 2026-05-07 14:35 | 51.64898 | 0.18995 | 11625 ft | 325 kts | 262° |
| 2026-05-07 14:35 | 51.64626 | 0.15430 | 11249 ft | 319 kts | 262° |
| 2026-05-07 14:35 | 51.64366 | 0.11908 | 10868 ft | 315 kts | 264° |
| 2026-05-07 14:36 | 51.64250 | 0.08491 | 10512 ft | 311 kts | 266° |
| 2026-05-07 14:36 | 51.64156 | 0.05034 | 10152 ft | 307 kts | 266° |
| 2026-05-07 14:36 | 51.64064 | 0.01652 | 9770 ft | 304 kts | 266° |
| 2026-05-07 14:36 | 51.63973 | -0.01733 | 9366 ft | 301 kts | 266° |
| 2026-05-07 14:37 | 51.63882 | -0.05077 | 8962 ft | 298 kts | 266° |
| 2026-05-07 14:37 | 51.63703 | -0.11667 | 8179 ft | 292 kts | 266° |
| 2026-05-07 14:37 | 51.63613 | -0.14919 | 7794 ft | 290 kts | 266° |
| 2026-05-07 14:38 | 51.63520 | -0.18142 | 7421 ft | 287 kts | 266° |
| 2026-05-07 14:38 | 51.63428 | -0.21327 | 7149 ft | 281 kts | 266° |
| 2026-05-07 14:38 | 51.63337 | -0.24433 | 6904 ft | 275 kts | 266° |
| 2026-05-07 14:38 | 51.63247 | -0.27477 | 6650 ft | 270 kts | 266° |
| 2026-05-07 14:39 | 51.63156 | -0.30481 | 6401 ft | 266 kts | 266° |
| 2026-05-07 14:39 | 51.63065 | -0.33467 | 6185 ft | 261 kts | 266° |
| 2026-05-07 14:39 | 51.62975 | -0.36317 | 5951 ft | 255 kts | 266° |
| 2026-05-07 14:39 | 51.62884 | -0.39171 | 5739 ft | 257 kts | 266° |
| 2026-05-07 14:40 | 51.62790 | -0.42041 | 5528 ft | 251 kts | 266° |
| 2026-05-07 14:40 | 51.62699 | -0.44815 | 5349 ft | 245 kts | 266° |
| 2026-05-07 14:40 | 51.62610 | -0.47521 | 5166 ft | 239 kts | 266° |
| 2026-05-07 14:40 | 51.62520 | -0.50161 | 5030 ft | 232 kts | 266° |
| 2026-05-07 14:41 | 51.62436 | -0.52699 | 5003 ft | 221 kts | 266° |
| 2026-05-07 14:41 | 51.62356 | -0.55096 | 5006 ft | 209 kts | 266° |
| 2026-05-07 14:41 | 51.62279 | -0.57417 | 5003 ft | 205 kts | 266° |
| 2026-05-07 14:41 | 51.62201 | -0.59681 | 5004 ft | 205 kts | 266° |
| 2026-05-07 14:42 | 51.62124 | -0.61966 | 5006 ft | 205 kts | 265° |
| 2026-05-07 14:42 | 51.62046 | -0.64252 | 5006 ft | 205 kts | 266° |
| 2026-05-07 14:42 | 51.61967 | -0.66543 | 5007 ft | 205 kts | 266° |
| 2026-05-07 14:42 | 51.61890 | -0.68840 | 5006 ft | 205 kts | 266° |
| 2026-05-07 14:43 | 51.61811 | -0.71130 | 4977 ft | 206 kts | 266° |
| 2026-05-07 14:43 | 51.61731 | -0.73439 | 4755 ft | 205 kts | 266° |
| 2026-05-07 14:43 | 51.61646 | -0.75725 | 4549 ft | 204 kts | 264° |
| 2026-05-07 14:43 | 51.61169 | -0.77802 | 4339 ft | 198 kts | 230° |
| 2026-05-07 14:44 | 51.60024 | -0.78964 | 4119 ft | 194 kts | 198° |
| 2026-05-07 14:44 | 51.58735 | -0.79445 | 4014 ft | 189 kts | 192° |
| 2026-05-07 14:44 | 51.57448 | -0.79832 | 3961 ft | 189 kts | 191° |
| 2026-05-07 14:44 | 51.56159 | -0.80211 | 3802 ft | 188 kts | 191° |
| 2026-05-07 14:45 | 51.54883 | -0.80588 | 3658 ft | 187 kts | 191° |
| 2026-05-07 14:45 | 51.53596 | -0.80966 | 3546 ft | 187 kts | 191° |
| 2026-05-07 14:45 | 51.52315 | -0.81344 | 3417 ft | 187 kts | 191° |
| 2026-05-07 14:45 | 51.51041 | -0.81592 | 3277 ft | 188 kts | 174° |
| 2026-05-07 14:46 | 51.49873 | -0.80688 | 3159 ft | 189 kts | 134° |
| 2026-05-07 14:46 | 51.49106 | -0.79015 | 3068 ft | 189 kts | 123° |
| 2026-05-07 14:46 | 51.48426 | -0.77218 | 2997 ft | 188 kts | 121° |
| 2026-05-07 14:46 | 51.47791 | -0.75379 | 2996 ft | 189 kts | 112° |
| 2026-05-07 14:47 | 51.47611 | -0.73300 | 3013 ft | 191 kts | 90° |
| 2026-05-07 14:47 | 51.47628 | -0.71168 | 2867 ft | 191 kts | 89° |
| 2026-05-07 14:47 | 51.47645 | -0.69041 | 2646 ft | 191 kts | 89° |
| 2026-05-07 14:47 | 51.47658 | -0.66906 | 2392 ft | 192 kts | 89° |
| 2026-05-07 14:48 | 51.47671 | -0.64761 | 2155 ft | 195 kts | 90° |
| 2026-05-07 14:48 | 51.47682 | -0.62615 | 1861 ft | 188 kts | 90° |
| 2026-05-07 14:48 | 51.47693 | -0.60590 | 1622 ft | 174 kts | 90° |
| 2026-05-07 14:48 | 51.47702 | -0.58720 | 1402 ft | 159 kts | 89° |
| 2026-05-07 14:49 | 51.47710 | -0.57046 | 1186 ft | 142 kts | 89° |
| 2026-05-07 14:49 | 51.47717 | -0.55522 | 986 ft | 133 kts | 89° |
| 2026-05-07 14:49 | 51.47722 | -0.54058 | 808 ft | 129 kts | 90° |
| 2026-05-07 14:49 | 51.47728 | -0.52624 | 643 ft | 127 kts | 88° |
| 2026-05-07 14:50 | 51.47742 | -0.51212 | 463 ft | 126 kts | 89° |
| 2026-05-07 14:50 | 51.47744 | -0.49824 | 289 ft | 124 kts | 88° |
| 2026-05-07 14:50 | 51.47754 | -0.48448 | 137 ft | 123 kts | 89° |
| 2026-05-07 14:50 | 51.47755 | -0.47173 | 90 ft | 98 kts | 89° |
| 2026-05-07 14:51 | 51.47758 | -0.46560 | 90 ft | 17 kts | 90° |
| 2026-05-07 14:51 | 51.47756 | -0.46315 | 90 ft | 26 kts | 90° |
| 2026-05-07 14:51 | 51.47677 | -0.46114 | 86 ft | 17 kts | 142° |
| 2026-05-07 14:51 | 51.47592 | -0.46081 | 90 ft | 12 kts | 248° |
| 2026-05-07 14:52 | 51.47595 | -0.46233 | 87 ft | 15 kts | 274° |
| 2026-05-07 14:52 | 51.47593 | -0.46418 | 87 ft | 17 kts | 268° |
| 2026-05-07 14:52 | 51.47591 | -0.46620 | 87 ft | 18 kts | 269° |
| 2026-05-07 14:52 | 51.47591 | -0.46816 | 87 ft | 15 kts | 268° |
| 2026-05-07 14:53 | 51.47536 | -0.46932 | 89 ft | 10 kts | 170° |
| 2026-05-07 14:53 | 51.47461 | -0.46902 | 87 ft | 13 kts | 167° |
| 2026-05-07 14:53 | 51.47369 | -0.46870 | 90 ft | 11 kts | 170° |
| 2026-05-07 14:53 | 51.47288 | -0.46867 | 87 ft | 12 kts | 179° |
| 2026-05-07 14:54 | 51.47242 | -0.46867 | 87 ft | 8 kts | 180° |
| 2026-05-07 14:54 | 51.47174 | -0.46868 | 87 ft | 12 kts | 182° |
| 2026-05-07 14:54 | 51.47084 | -0.46866 | 87 ft | 13 kts | 174° |
| 2026-05-07 14:54 | 51.47053 | -0.46761 | 88 ft | 12 kts | 96° |
| 2026-05-07 14:55 | 51.46994 | -0.46667 | 89 ft | 10 kts | 146° |
| 2026-05-07 14:55 | 51.46987 | -0.46610 | 89 ft | 7 kts | 58° |
| 2026-05-07 14:55 | 51.47016 | -0.46542 | 90 ft | 2 kts | 54° |
| 2026-05-07 14:55 | 51.47023 | -0.46526 | 87 ft | 1 kts | 55° |
| 2026-05-07 14:56 | 51.47023 | -0.46525 | 87 ft | 0 kts | 55° |